createdAt,value
2016-10-01T00:00:13.676Z,996.86
2016-10-01T00:01:23.670Z,996.87
2016-10-01T00:02:33.349Z,996.87
2016-10-01T00:03:43.651Z,996.84
2016-10-01T00:04:53.945Z,996.8
2016-10-01T00:06:03.919Z,996.8
2016-10-01T00:07:14.216Z,996.81
2016-10-01T00:08:24.499Z,996.83
2016-10-01T00:09:34.504Z,996.8
2016-10-01T00:10:44.807Z,996.79
2016-10-01T00:11:54.478Z,996.73
2016-10-01T00:13:04.769Z,996.77
2016-10-01T00:14:14.443Z,996.76
2016-10-01T00:15:24.737Z,996.74
2016-10-01T00:16:34.725Z,996.73
2016-10-01T00:17:44.102Z,996.72
2016-10-01T00:18:54.104Z,996.66
2016-10-01T00:20:04.089Z,996.68
2016-10-01T00:21:14.376Z,996.64
2016-10-01T00:22:23.734Z,996.63
2016-10-01T00:23:34.019Z,996.6
2016-10-01T00:24:44.306Z,996.61
2016-10-01T00:25:54.619Z,996.6
2016-10-01T00:27:04.920Z,996.56
2016-10-01T00:28:14.910Z,996.54
2016-10-01T00:29:25.213Z,996.54
2016-10-01T00:30:35.530Z,996.51
2016-10-01T00:31:45.516Z,996.49
2016-10-01T00:32:55.523Z,996.49
2016-10-01T00:34:05.810Z,996.46
2016-10-01T00:35:14.856Z,996.47
2016-10-01T00:36:24.836Z,996.44
2016-10-01T00:37:34.824Z,996.44
2016-10-01T00:38:44.806Z,996.44
2016-10-01T00:39:55.089Z,996.48
2016-10-01T00:41:04.785Z,996.48
2016-10-01T00:42:14.447Z,996.49
2016-10-01T00:43:24.738Z,996.44
2016-10-01T00:44:34.735Z,996.46
2016-10-01T00:45:44.086Z,996.42
2016-10-01T00:46:53.463Z,996.47
2016-10-01T00:48:03.445Z,996.47
2016-10-01T00:49:13.745Z,996.47
2016-10-01T00:50:23.728Z,996.48
2016-10-01T00:51:33.395Z,996.48
2016-10-01T00:52:43.679Z,996.44
2016-10-01T00:53:53.978Z,996.43
2016-10-01T00:55:03.974Z,996.42
2016-10-01T00:56:13.961Z,996.39
2016-10-01T00:57:24.249Z,996.37
2016-10-01T00:58:33.923Z,996.4
2016-10-01T00:59:44.230Z,996.36
2016-10-01T01:00:54.524Z,996.34
2016-10-01T01:02:04.229Z,996.36
2016-10-01T01:03:14.516Z,996.36
2016-10-01T01:04:24.181Z,996.35
2016-10-01T01:05:34.481Z,996.29
2016-10-01T01:06:44.822Z,996.32
2016-10-01T01:07:54.808Z,996.29
2016-10-01T01:09:05.091Z,996.25
2016-10-01T01:10:15.085Z,996.25
2016-10-01T01:11:25.083Z,996.23
2016-10-01T01:12:35.386Z,996.2
2016-10-01T01:13:45.687Z,996.18
2016-10-01T01:14:55.977Z,996.16
2016-10-01T01:16:05.941Z,996.2
2016-10-01T01:17:15.923Z,996.15
2016-10-01T01:18:25.599Z,996.19
2016-10-01T01:19:35.572Z,996.2
2016-10-01T01:20:45.258Z,996.19
2016-10-01T01:21:55.475Z,996.16
2016-10-01T01:23:05.776Z,996.17
2016-10-01T01:24:16.057Z,996.14
2016-10-01T01:25:26.049Z,996.12
2016-10-01T01:26:35.783Z,996.1
2016-10-01T01:27:46.072Z,996.11
2016-10-01T01:28:56.369Z,996.1
2016-10-01T01:30:06.894Z,996.09
2016-10-01T01:31:17.184Z,996.1
2016-10-01T01:32:27.182Z,996.08
2016-10-01T01:33:37.166Z,996.08
2016-10-01T01:34:47.493Z,996.1
2016-10-01T01:35:57.490Z,996.07
2016-10-01T01:37:07.810Z,996.1
2016-10-01T01:38:18.102Z,996.1
2016-10-01T01:39:28.401Z,996.14
2016-10-01T01:40:38.372Z,996.13
2016-10-01T01:41:48.075Z,996.14
2016-10-01T01:42:58.371Z,996.13
2016-10-01T01:44:08.348Z,996.12
2016-10-01T01:45:18.329Z,996.15
2016-10-01T01:46:27.992Z,996.11
2016-10-01T01:47:37.982Z,996.1
2016-10-01T01:48:47.973Z,996.06
2016-10-01T01:49:57.974Z,996.05
2016-10-01T01:51:07.966Z,996.09
2016-10-01T01:52:17.945Z,996.05
2016-10-01T01:53:28.262Z,996.04
2016-10-01T01:54:38.548Z,996.07
2016-10-01T01:55:48.834Z,996.04
2016-10-01T01:56:58.813Z,996.06
2016-10-01T01:58:09.089Z,996.09
2016-10-01T01:59:19.395Z,996.08
2016-10-01T02:00:29.377Z,996.12
2016-10-01T02:01:39.368Z,996.11
2016-10-01T02:02:49.683Z,996.11
2016-10-01T02:03:59.660Z,996.14
2016-10-01T02:05:09.950Z,996.1
2016-10-01T02:06:19.933Z,996.09
2016-10-01T02:07:29.911Z,996.06
2016-10-01T02:08:40.193Z,996.02
2016-10-01T02:09:50.480Z,996.02
2016-10-01T02:11:00.467Z,995.98
2016-10-01T02:12:10.752Z,995.93
2016-10-01T02:13:20.729Z,995.96
2016-10-01T02:14:30.724Z,995.95
2016-10-01T02:15:40.397Z,995.93
2016-10-01T02:16:50.702Z,995.91
2016-10-01T02:18:01.002Z,995.87
2016-10-01T02:19:11.297Z,995.92
2016-10-01T02:20:21.279Z,995.9
2016-10-01T02:21:31.568Z,995.91
2016-10-01T02:22:41.563Z,995.9
2016-10-01T02:23:51.854Z,995.89
2016-10-01T02:25:02.150Z,995.94
2016-10-01T02:26:12.129Z,995.92
2016-10-01T02:27:22.416Z,995.88
2016-10-01T02:28:32.722Z,995.91
2016-10-01T02:29:43.012Z,995.91
2016-10-01T02:30:53.040Z,995.93
2016-10-01T02:32:02.704Z,995.93
2016-10-01T02:33:12.999Z,995.96
2016-10-01T02:34:23.286Z,995.96
2016-10-01T02:35:32.667Z,995.96
2016-10-01T02:36:42.673Z,995.98
2016-10-01T02:37:52.955Z,995.99
2016-10-01T02:39:02.949Z,995.97
2016-10-01T02:40:12.920Z,995.98
2016-10-01T02:41:23.236Z,995.97
2016-10-01T02:42:32.599Z,996.02
2016-10-01T02:43:42.590Z,996.06
2016-10-01T02:44:52.571Z,996.04
2016-10-01T02:46:02.551Z,996.04
2016-10-01T02:47:12.850Z,996.06
2016-10-01T02:48:22.838Z,996.08
2016-10-01T02:49:32.817Z,996.1
2016-10-01T02:50:43.041Z,996.04
2016-10-01T02:51:53.023Z,996.06
2016-10-01T02:53:03.309Z,996.05
2016-10-01T02:54:13.603Z,996.07
2016-10-01T02:55:23.901Z,996.08
2016-10-01T02:56:34.192Z,996.06
2016-10-01T02:57:43.897Z,996.05
2016-10-01T02:58:53.875Z,996.07
2016-10-01T03:00:03.848Z,996.08
2016-10-01T03:01:14.140Z,996.07
2016-10-01T03:32:26.459Z,996.05
2016-10-01T03:33:36.729Z,996.08
2016-10-01T03:34:47.023Z,996.07
2016-10-01T03:35:56.984Z,996.07
2016-10-01T03:37:07.276Z,996.09
2016-10-01T03:38:17.256Z,996.06
2016-10-01T03:39:26.626Z,996.04
2016-10-01T03:40:36.594Z,996.04
2016-10-01T03:41:46.610Z,996.07
2016-10-01T03:42:56.284Z,996.02
2016-10-01T03:44:05.952Z,996.02
2016-10-01T03:45:15.934Z,996.03
2016-10-01T03:46:25.902Z,995.98
2016-10-01T03:47:35.588Z,996.02
2016-10-01T03:48:45.900Z,995.99
2016-10-01T03:49:55.561Z,996.02
2016-10-01T03:51:05.268Z,996.01
2016-10-01T03:52:14.622Z,995.99
2016-10-01T03:53:24.000Z,996.01
2016-10-01T03:54:34.289Z,995.97
2016-10-01T03:55:43.955Z,995.96
2016-10-01T03:56:53.648Z,995.98
2016-10-01T03:58:03.939Z,996.01
2016-10-01T03:59:14.232Z,995.98
2016-10-01T04:00:24.213Z,996.01
2016-10-01T04:01:34.513Z,995.96
2016-10-01T04:02:44.489Z,995.98
2016-10-01T04:03:54.471Z,995.96
2016-10-01T04:05:04.749Z,995.95
2016-10-01T04:06:14.714Z,995.9
2016-10-01T04:07:24.706Z,995.93
2016-10-01T04:08:35.129Z,995.9
2016-10-01T04:09:45.431Z,995.91
2016-10-01T04:10:55.405Z,995.94
2016-10-01T04:12:05.389Z,995.93
2016-10-01T04:13:15.371Z,995.97
2016-10-01T04:14:25.364Z,995.97
2016-10-01T04:15:35.654Z,995.94
2016-10-01T04:16:45.941Z,995.97
2016-10-01T04:17:55.638Z,995.97
2016-10-01T04:19:05.926Z,995.99
2016-10-01T04:20:16.216Z,995.97
2016-10-01T04:21:26.197Z,995.98
2016-10-01T04:22:36.478Z,995.96
2016-10-01T04:23:46.456Z,995.97
2016-10-01T04:24:55.839Z,995.97
2016-10-01T04:26:05.823Z,995.94
2016-10-01T04:27:15.803Z,995.97
2016-10-01T04:28:26.096Z,995.93
2016-10-01T04:29:36.099Z,995.94
2016-10-01T04:30:46.107Z,995.94
2016-10-01T04:31:56.090Z,995.93
2016-10-01T04:33:06.078Z,995.95
2016-10-01T04:34:16.380Z,995.98
2016-10-01T04:35:26.662Z,996
2016-10-01T04:36:36.954Z,995.98
2016-10-01T04:37:46.620Z,996.02
2016-10-01T04:38:56.922Z,996.03
2016-10-01T04:40:06.594Z,996.03
2016-10-01T04:41:16.895Z,996.04
2016-10-01T04:42:26.888Z,996.05
2016-10-01T04:43:36.855Z,996.02
2016-10-01T04:44:46.835Z,996.02
2016-10-01T04:45:56.508Z,996
2016-10-01T04:47:06.804Z,995.98
2016-10-01T04:48:17.096Z,996
2016-10-01T04:49:27.082Z,995.98
2016-10-01T04:50:37.359Z,996
2016-10-01T04:51:47.653Z,995.97
2016-10-01T04:52:57.632Z,995.95
2016-10-01T04:54:07.913Z,995.97
2016-10-01T04:55:17.895Z,995.96
2016-10-01T04:56:27.887Z,995.98
2016-10-01T04:57:37.549Z,995.96
2016-10-01T04:58:47.511Z,995.97
2016-10-01T04:59:57.798Z,995.94
2016-10-01T05:01:07.484Z,995.93
2016-10-01T05:02:17.455Z,995.96
2016-10-01T05:03:27.737Z,995.94
2016-10-01T05:04:37.726Z,995.93
2016-10-01T05:05:47.088Z,995.93
2016-10-01T05:06:57.382Z,995.95
2016-10-01T05:08:07.350Z,995.97
2016-10-01T05:09:17.635Z,996
2016-10-01T05:10:27.313Z,996.01
2016-10-01T05:11:36.975Z,996.03
2016-10-01T05:12:47.261Z,996.04
2016-10-01T05:13:57.251Z,996.03
2016-10-01T05:15:07.534Z,996.04
2016-10-01T05:16:17.525Z,996.04
2016-10-01T05:17:27.812Z,996.08
2016-10-01T05:18:38.099Z,996.06
2016-10-01T05:19:48.081Z,996.07
2016-10-01T05:20:58.068Z,996.07
2016-10-01T05:22:08.355Z,996.09
2016-10-01T05:23:18.334Z,996.06
2016-10-01T05:24:28.303Z,996.09
2016-10-01T05:25:38.284Z,996.12
2016-10-01T05:26:48.271Z,996.12
2016-10-01T05:27:57.322Z,996.15
2016-10-01T05:29:07.610Z,996.16
2016-10-01T05:30:17.912Z,996.11
2016-10-01T05:31:28.187Z,996.08
2016-10-01T05:32:38.193Z,996.09
2016-10-01T05:33:48.473Z,996.05
2016-10-01T05:34:58.783Z,996.08
2016-10-01T05:36:09.065Z,996.11
2016-10-01T05:37:19.051Z,996.1
2016-10-01T05:38:28.422Z,996.09
2016-10-01T05:39:38.739Z,996.13
2016-10-01T05:40:49.023Z,996.1
2016-10-01T05:41:59.318Z,996.11
2016-10-01T05:43:09.275Z,996.14
2016-10-01T05:44:19.564Z,996.17
2016-10-01T05:45:29.858Z,996.12
2016-10-01T05:46:39.523Z,996.15
2016-10-01T05:47:49.815Z,996.16
2016-10-01T05:48:59.793Z,996.18
2016-10-01T05:50:09.790Z,996.19
2016-10-01T05:51:20.074Z,996.18
2016-10-01T05:52:30.359Z,996.17
2016-10-01T05:53:40.670Z,996.15
2016-10-01T05:54:50.956Z,996.16
2016-10-01T05:56:01.248Z,996.17
2016-10-01T05:57:11.230Z,996.22
2016-10-01T05:58:21.517Z,996.25
2016-10-01T05:59:31.178Z,996.28
2016-10-01T06:00:41.464Z,996.33
2016-10-01T06:01:51.753Z,996.3
2016-10-01T06:03:01.423Z,996.3
2016-10-01T06:04:11.095Z,996.32
2016-10-01T06:05:21.101Z,996.31
2016-10-01T06:06:31.389Z,996.32
2016-10-01T06:07:41.397Z,996.33
2016-10-01T06:08:51.367Z,996.3
2016-10-01T06:10:01.340Z,996.36
2016-10-01T06:11:11.650Z,996.29
2016-10-01T06:12:21.963Z,996.34
2016-10-01T06:13:32.253Z,996.33
2016-10-01T06:14:42.539Z,996.37
2016-10-01T06:15:52.522Z,996.38
2016-10-01T06:17:02.826Z,996.39
2016-10-01T06:18:13.105Z,996.41
2016-10-01T06:19:23.402Z,996.43
2016-10-01T06:20:33.388Z,996.41
2016-10-01T06:21:43.379Z,996.41
2016-10-01T06:22:53.669Z,996.4
2016-10-01T06:24:03.652Z,996.41
2016-10-01T06:25:13.945Z,996.44
2016-10-01T06:26:23.924Z,996.43
2016-10-01T06:27:34.217Z,996.45
2016-10-01T06:28:44.196Z,996.47
2016-10-01T06:29:54.177Z,996.46
2016-10-01T06:31:04.167Z,996.46
2016-10-01T06:32:14.440Z,996.46
2016-10-01T06:33:24.733Z,996.47
2016-10-01T06:34:34.715Z,996.51
2016-10-01T06:35:45.011Z,996.53
2016-10-01T06:36:55.000Z,996.56
2016-10-01T06:38:05.294Z,996.61
2016-10-01T06:39:15.276Z,996.63
2016-10-01T06:40:25.268Z,996.62
2016-10-01T06:41:35.558Z,996.6
2016-10-01T06:42:44.919Z,996.64
2016-10-01T06:43:54.913Z,996.65
2016-10-01T06:45:05.194Z,996.67
2016-10-01T06:46:14.877Z,996.67
2016-10-01T06:47:24.870Z,996.67
2016-10-01T06:48:35.171Z,996.72
2016-10-01T06:49:45.162Z,996.7
2016-10-01T06:50:55.454Z,996.66
2016-10-01T06:52:05.769Z,996.67
2016-10-01T06:53:16.057Z,996.64
2016-10-01T06:54:26.357Z,996.69
2016-10-01T06:55:36.336Z,996.69
2016-10-01T06:56:46.338Z,996.65
2016-10-01T06:57:56.623Z,996.67
2016-10-01T06:59:05.990Z,996.68
2016-10-01T07:00:15.656Z,996.67
2016-10-01T07:01:25.668Z,996.65
2016-10-01T07:02:35.964Z,996.63
2016-10-01T07:03:46.252Z,996.63
2016-10-01T07:04:56.547Z,996.66
2016-10-01T07:06:06.836Z,996.66
2016-10-01T07:07:16.817Z,996.69
2016-10-01T07:08:27.105Z,996.66
2016-10-01T07:09:37.407Z,996.65
2016-10-01T07:10:47.099Z,996.65
2016-10-01T07:11:57.405Z,996.64
2016-10-01T07:13:07.711Z,996.63
2016-10-01T07:14:17.373Z,996.63
2016-10-01T07:15:27.693Z,996.66
2016-10-01T07:16:37.681Z,996.59
2016-10-01T07:17:47.977Z,996.54
2016-10-01T07:18:57.955Z,996.55
2016-10-01T07:20:07.325Z,996.54
2016-10-01T07:21:17.623Z,996.5
2016-10-01T07:22:27.313Z,996.51
2016-10-01T07:23:37.000Z,996.5
2016-10-01T07:24:47.286Z,996.52
2016-10-01T07:25:57.579Z,996.5
2016-10-01T07:27:07.562Z,996.5
2016-10-01T07:28:17.554Z,996.53
2016-10-01T07:29:27.251Z,996.52
2016-10-01T07:30:36.934Z,996.51
2016-10-01T07:31:47.217Z,996.54
2016-10-01T07:32:57.510Z,996.51
2016-10-01T07:34:07.508Z,996.49
2016-10-01T07:35:17.499Z,996.5
2016-10-01T07:36:27.510Z,996.47
2016-10-01T07:37:37.811Z,996.45
2016-10-01T07:38:47.795Z,996.45
2016-10-01T07:39:58.101Z,996.5
2016-10-01T07:41:08.406Z,996.46
2016-10-01T07:42:18.694Z,996.49
2016-10-01T07:43:28.986Z,996.48
2016-10-01T07:44:38.962Z,996.54
2016-10-01T07:45:48.959Z,996.51
2016-10-01T07:46:58.973Z,996.51
2016-10-01T07:48:09.283Z,996.51
2016-10-01T07:49:19.564Z,996.48
2016-10-01T07:50:28.631Z,996.5
2016-10-01T07:51:39.128Z,996.51
2016-10-01T07:52:49.433Z,996.55
2016-10-01T07:53:58.813Z,996.52
2016-10-01T07:55:08.817Z,996.49
2016-10-01T07:56:19.115Z,996.54
2016-10-01T07:57:29.409Z,996.55
2016-10-01T07:58:39.702Z,996.56
2016-10-01T07:59:49.408Z,996.55
2016-10-01T08:00:59.722Z,996.53
2016-10-01T08:02:09.399Z,996.63
2016-10-01T08:03:19.675Z,996.58
2016-10-01T08:04:29.676Z,996.61
2016-10-01T08:05:39.969Z,996.59
2016-10-01T08:06:50.280Z,996.6
2016-10-01T08:08:00.609Z,996.58
2016-10-01T08:09:10.608Z,996.58
2016-10-01T08:10:20.616Z,996.56
2016-10-01T08:11:30.922Z,996.59
2016-10-01T08:12:41.233Z,996.57
2016-10-01T08:13:50.915Z,996.6
2016-10-01T08:15:00.292Z,996.58
2016-10-01T08:16:09.963Z,996.6
2016-10-01T08:17:20.277Z,996.59
2016-10-01T08:18:30.281Z,996.64
2016-10-01T08:19:40.565Z,996.58
2016-10-01T08:20:50.850Z,996.58
2016-10-01T08:22:00.521Z,996.56
2016-10-01T08:23:10.833Z,996.52
2016-10-01T08:24:20.519Z,996.59
2016-10-01T08:25:30.495Z,996.56
2016-10-01T08:26:40.951Z,996.59
2016-10-01T08:27:52.079Z,996.61
2016-10-01T08:29:02.551Z,996.54
2016-10-01T08:30:12.867Z,996.56
2016-10-01T08:31:25.491Z,996.55
2016-10-01T08:32:35.502Z,996.58
2016-10-01T08:33:46.519Z,996.55
2016-10-01T08:35:00.282Z,996.6
2016-10-01T08:36:12.826Z,996.58
2016-10-01T08:37:25.720Z,996.52
2016-10-01T08:38:38.243Z,996.48
2016-10-01T08:39:48.268Z,996.51
2016-10-01T08:40:58.050Z,996.46
2016-10-01T08:42:08.173Z,996.5
2016-10-01T08:43:18.243Z,996.51
2016-10-01T08:44:28.217Z,996.52
2016-10-01T08:45:37.880Z,996.51
2016-10-01T08:46:47.954Z,996.53
2016-10-01T08:47:58.416Z,996.54
2016-10-01T08:49:08.811Z,996.53
2016-10-01T08:50:19.232Z,996.44
2016-10-01T08:51:29.625Z,996.48
2016-10-01T08:52:39.361Z,996.46
2016-10-01T08:53:49.808Z,996.48
2016-10-01T08:54:59.552Z,996.45
2016-10-01T08:56:10.073Z,996.44
2016-10-01T08:57:20.440Z,996.46
2016-10-01T08:58:30.801Z,996.47
2016-10-01T08:59:40.480Z,996.49
2016-10-01T09:00:50.807Z,996.43
2016-10-01T09:02:00.805Z,996.42
2016-10-01T09:03:11.130Z,996.46
2016-10-01T09:04:21.211Z,996.41
2016-10-01T09:05:31.820Z,996.39
2016-10-01T09:06:41.787Z,996.38
2016-10-01T09:07:52.418Z,996.4
2016-10-01T09:09:02.814Z,996.42
2016-10-01T09:10:12.795Z,996.43
2016-10-01T09:11:22.567Z,996.44
2016-10-01T09:12:32.952Z,996.41
2016-10-01T09:13:43.010Z,996.34
2016-10-01T09:14:52.739Z,996.38
2016-10-01T09:16:03.059Z,996.37
2016-10-01T09:17:14.130Z,996.33
2016-10-01T09:18:24.486Z,996.35
2016-10-01T09:19:34.797Z,996.27
2016-10-01T09:20:45.062Z,996.27
2016-10-01T09:21:55.446Z,996.28
2016-10-01T09:23:05.836Z,996.26
2016-10-01T09:24:16.197Z,996.24
2016-10-01T09:25:26.190Z,996.29
2016-10-01T09:26:36.756Z,996.29
2016-10-01T09:27:47.069Z,996.22
2016-10-01T09:28:57.114Z,996.25
2016-10-01T09:30:07.141Z,996.24
2016-10-01T09:31:17.433Z,996.19
2016-10-01T09:32:27.127Z,996.27
2016-10-01T09:33:37.141Z,996.26
2016-10-01T09:34:47.488Z,996.25
2016-10-01T09:35:57.800Z,996.23
2016-10-01T09:37:08.134Z,996.21
2016-10-01T09:38:18.142Z,996.24
2016-10-01T09:39:27.819Z,996.18
2016-10-01T09:40:38.110Z,996.15
2016-10-01T09:41:48.121Z,996.15
2016-10-01T09:42:58.119Z,996.13
2016-10-01T09:44:08.132Z,996.13
2016-10-01T09:45:18.791Z,996.14
2016-10-01T09:46:28.805Z,996.18
2016-10-01T09:47:38.797Z,996.18
2016-10-01T09:48:48.785Z,996.22
2016-10-01T09:49:58.788Z,996.2
2016-10-01T09:51:08.798Z,996.23
2016-10-01T09:52:18.806Z,996.21
2016-10-01T09:53:29.128Z,996.22
2016-10-01T09:54:39.131Z,996.21
2016-10-01T09:55:49.146Z,996.21
2016-10-01T09:56:59.151Z,996.17
2016-10-01T09:58:09.469Z,996.22
2016-10-01T09:59:19.777Z,996.23
2016-10-01T10:00:30.090Z,996.19
2016-10-01T10:01:40.387Z,996.17
2016-10-01T10:02:50.093Z,996.17
2016-10-01T10:04:00.400Z,996.12
2016-10-01T10:05:10.722Z,996.11
2016-10-01T10:06:20.700Z,996.09
2016-10-01T10:07:31.002Z,996.14
2016-10-01T10:08:41.340Z,996.14
2016-10-01T10:09:51.653Z,996.07
2016-10-01T10:11:01.972Z,996.06
2016-10-01T10:12:11.970Z,996.02
2016-10-01T10:13:21.983Z,996.05
2016-10-01T10:14:31.992Z,996.04
2016-10-01T10:15:42.285Z,996.03
2016-10-01T10:16:52.287Z,996.01
2016-10-01T10:18:02.596Z,996.03
2016-10-01T10:19:12.272Z,996
2016-10-01T10:20:22.569Z,995.99
2016-10-01T10:21:32.562Z,996.04
2016-10-01T10:22:42.262Z,995.99
2016-10-01T10:23:51.944Z,996
2016-10-01T10:25:01.950Z,995.96
2016-10-01T10:26:12.278Z,995.94
2016-10-01T10:27:22.589Z,995.92
2016-10-01T10:28:32.616Z,995.93
2016-10-01T10:29:42.902Z,995.9
2016-10-01T10:30:52.279Z,995.86
2016-10-01T10:32:02.263Z,995.93
2016-10-01T10:33:12.620Z,995.9
2016-10-01T10:34:22.634Z,995.93
2016-10-01T10:35:32.001Z,995.91
2016-10-01T10:36:41.709Z,995.88
2016-10-01T10:37:51.705Z,995.89
2016-10-01T10:39:02.022Z,995.9
2016-10-01T10:40:12.013Z,995.87
2016-10-01T10:41:22.018Z,995.91
2016-10-01T10:42:32.561Z,995.89
2016-10-01T10:43:42.555Z,995.86
2016-10-01T10:44:52.873Z,995.88
2016-10-01T10:46:03.181Z,995.87
2016-10-01T10:47:13.499Z,995.83
2016-10-01T10:48:23.819Z,995.81
2016-10-01T10:49:34.160Z,995.8
2016-10-01T10:50:44.468Z,995.76
2016-10-01T10:51:54.785Z,995.75
2016-10-01T10:53:05.105Z,995.8
2016-10-01T10:54:15.410Z,995.78
2016-10-01T10:55:25.719Z,995.73
2016-10-01T10:56:35.712Z,995.72
2016-10-01T10:57:45.707Z,995.69
2016-10-01T10:58:55.715Z,995.69
2016-10-01T11:00:05.733Z,995.64
2016-10-01T11:01:15.742Z,995.67
2016-10-01T11:02:25.749Z,995.67
2016-10-01T11:03:36.041Z,995.71
2016-10-01T11:04:46.353Z,995.63
2016-10-01T11:05:56.078Z,995.65
2016-10-01T11:07:06.087Z,995.63
2016-10-01T11:08:16.080Z,995.61
2016-10-01T11:09:26.402Z,995.61
2016-10-01T11:10:36.732Z,995.58
2016-10-01T11:11:46.736Z,995.57
2016-10-01T11:12:56.428Z,995.59
2016-10-01T11:14:06.723Z,995.51
2016-10-01T11:15:16.736Z,995.49
2016-10-01T11:16:26.721Z,995.47
2016-10-01T11:17:37.033Z,995.44
2016-10-01T11:18:47.355Z,995.44
2016-10-01T11:19:57.080Z,995.38
2016-10-01T11:21:07.392Z,995.37
2016-10-01T11:22:17.404Z,995.33
2016-10-01T11:23:27.091Z,995.37
2016-10-01T11:24:37.079Z,995.3
2016-10-01T11:25:47.374Z,995.34
2016-10-01T11:26:57.401Z,995.32
2016-10-01T11:28:07.406Z,995.28
2016-10-01T11:29:17.429Z,995.26
2016-10-01T11:30:27.746Z,995.21
2016-10-01T11:31:37.446Z,995.25
2016-10-01T11:32:47.450Z,995.22
2016-10-01T11:33:57.139Z,995.15
2016-10-01T11:35:07.125Z,995.14
2016-10-01T11:36:17.118Z,995.12
2016-10-01T11:37:27.438Z,995.12
2016-10-01T11:38:37.139Z,995.1
2016-10-01T11:39:47.135Z,995.05
2016-10-01T11:40:57.118Z,995.06
2016-10-01T11:42:07.429Z,995.03
2016-10-01T11:43:17.971Z,994.97
2016-10-01T11:44:28.013Z,994.94
2016-10-01T11:45:38.327Z,994.94
2016-10-01T11:46:48.630Z,994.91
2016-10-01T11:47:58.639Z,994.84
2016-10-01T11:49:08.334Z,994.84
2016-10-01T11:50:18.347Z,994.81
2016-10-01T11:51:28.676Z,994.81
2016-10-01T11:52:38.701Z,994.77
2016-10-01T11:53:49.004Z,994.82
2016-10-01T11:54:59.321Z,994.78
2016-10-01T11:56:09.643Z,994.78
2016-10-01T11:57:19.650Z,994.81
2016-10-01T11:58:29.672Z,994.82
2016-10-01T11:59:40.014Z,994.84
2016-10-01T12:00:50.012Z,994.79
2016-10-01T12:02:00.327Z,994.74
2016-10-01T12:03:10.331Z,994.74
2016-10-01T12:04:20.342Z,994.74
2016-10-01T12:05:30.661Z,994.75
2016-10-01T12:06:40.034Z,994.69
2016-10-01T12:07:50.341Z,994.64
2016-10-01T12:09:00.328Z,994.58
2016-10-01T12:10:10.306Z,994.61
2016-10-01T12:11:20.308Z,994.6
2016-10-01T12:12:30.300Z,994.63
2016-10-01T12:13:39.994Z,994.58
2016-10-01T12:14:50.006Z,994.61
2016-10-01T12:16:00.306Z,994.59
2016-10-01T12:17:09.982Z,994.64
2016-10-01T12:18:20.287Z,994.65
2016-10-01T12:19:30.303Z,994.61
2016-10-01T12:20:40.310Z,994.63
2016-10-01T12:21:50.320Z,994.61
2016-10-01T12:23:00.328Z,994.66
2016-10-01T12:24:10.647Z,994.61
2016-10-01T12:25:20.669Z,994.63
2016-10-01T12:26:30.342Z,994.57
2016-10-01T12:27:40.339Z,994.64
2016-10-01T12:28:50.353Z,994.58
2016-10-01T12:30:00.668Z,994.55
2016-10-01T12:31:10.975Z,994.57
2016-10-01T12:32:21.289Z,994.51
2016-10-01T12:33:30.970Z,994.47
2016-10-01T12:34:40.959Z,994.47
2016-10-01T12:35:50.975Z,994.46
2016-10-01T12:37:01.301Z,994.39
2016-10-01T12:38:11.595Z,994.41
2016-10-01T12:39:21.917Z,994.39
2016-10-01T12:40:32.235Z,994.37
2016-10-01T12:41:42.219Z,994.35
2016-10-01T12:42:52.535Z,994.35
2016-10-01T12:44:02.833Z,994.39
2016-10-01T12:45:12.532Z,994.4
2016-10-01T12:46:22.550Z,994.36
2016-10-01T12:47:32.876Z,994.39
2016-10-01T12:48:43.171Z,994.33
2016-10-01T12:49:53.504Z,994.34
2016-10-01T12:51:03.816Z,994.34
2016-10-01T12:52:14.128Z,994.33
2016-10-01T12:53:24.121Z,994.37
2016-10-01T12:54:34.438Z,994.41
2016-10-01T12:55:44.769Z,994.39
2016-10-01T12:56:55.116Z,994.39
2016-10-01T12:58:05.402Z,994.37
2016-10-01T12:59:15.394Z,994.39
2016-10-01T13:00:25.686Z,994.34
2016-10-01T13:01:35.388Z,994.32
2016-10-01T13:02:45.412Z,994.32
2016-10-01T13:03:55.727Z,994.33
2016-10-01T13:05:05.422Z,994.3
2016-10-01T13:06:15.409Z,994.33
2016-10-01T13:07:25.410Z,994.3
2016-10-01T13:08:35.415Z,994.25
2016-10-01T13:09:45.406Z,994.29
2016-10-01T13:10:55.411Z,994.26
2016-10-01T13:12:05.409Z,994.3
2016-10-01T13:13:15.413Z,994.26
2016-10-01T13:14:25.445Z,994.21
2016-10-01T13:15:35.126Z,994.26
2016-10-01T13:16:45.420Z,994.24
2016-10-01T13:17:55.411Z,994.23
2016-10-01T13:19:05.414Z,994.21
2016-10-01T13:20:15.727Z,994.2
2016-10-01T13:21:26.049Z,994.18
2016-10-01T13:22:36.360Z,994.21
2016-10-01T13:23:46.367Z,994.22
2016-10-01T13:24:56.367Z,994.22
2016-10-01T13:26:06.386Z,994.19
2016-10-01T13:27:16.714Z,994.23
2016-10-01T13:28:26.700Z,994.2
2016-10-01T13:29:37.049Z,994.19
2016-10-01T13:30:47.054Z,994.16
2016-10-01T13:31:57.075Z,994.15
2016-10-01T13:33:07.085Z,994.17
2016-10-01T13:34:17.087Z,994.11
2016-10-01T13:35:27.456Z,994.12
2016-10-01T13:36:37.786Z,994.12
2016-10-01T13:37:48.095Z,994.09
2016-10-01T13:38:58.416Z,994.06
2016-10-01T13:40:08.727Z,994.03
2016-10-01T13:41:19.035Z,994.05
2016-10-01T13:42:29.366Z,994.01
2016-10-01T13:43:39.667Z,993.99
2016-10-01T13:44:49.362Z,993.96
2016-10-01T13:45:59.702Z,993.99
2016-10-01T13:47:10.028Z,993.94
2016-10-01T13:48:20.339Z,993.98
2016-10-01T13:49:29.738Z,994
2016-10-01T13:50:40.057Z,994.01
2016-10-01T13:51:50.369Z,994
2016-10-01T13:53:00.379Z,993.99
2016-10-01T13:54:10.381Z,993.99
2016-10-01T13:55:20.387Z,993.92
2016-10-01T13:56:30.695Z,993.97
2016-10-01T13:57:40.701Z,993.99
2016-10-01T13:58:51.025Z,993.96
2016-10-01T14:00:01.036Z,993.98
2016-10-01T14:01:11.351Z,993.95
2016-10-01T14:02:21.040Z,993.95
2016-10-01T14:03:31.057Z,993.96
2016-10-01T14:04:41.064Z,993.89
2016-10-01T14:05:51.087Z,993.94
2016-10-01T14:07:01.407Z,993.9
2016-10-01T14:08:10.799Z,993.9
2016-10-01T14:09:21.117Z,993.87
2016-10-01T14:10:31.423Z,993.86
2016-10-01T14:11:41.447Z,993.85
2016-10-01T14:12:51.461Z,993.88
2016-10-01T14:14:01.791Z,993.84
2016-10-01T14:15:12.149Z,993.85
2016-10-01T14:16:22.497Z,993.84
2016-10-01T14:17:32.200Z,993.83
2016-10-01T14:18:42.201Z,993.81
2016-10-01T14:19:52.518Z,993.82
2016-10-01T14:21:02.825Z,993.77
2016-10-01T14:22:12.841Z,993.81
2016-10-01T14:23:22.854Z,993.76
2016-10-01T14:24:32.848Z,993.75
2016-10-01T14:25:42.851Z,993.68
2016-10-01T14:26:53.199Z,993.64
2016-10-01T14:28:03.516Z,993.69
2016-10-01T14:29:13.830Z,993.72
2016-10-01T14:30:24.161Z,993.71
2016-10-01T14:31:34.488Z,993.72
2016-10-01T14:32:44.809Z,993.73
2016-10-01T14:33:54.826Z,993.72
2016-10-01T14:35:05.145Z,993.77
2016-10-01T14:36:15.476Z,993.7
2016-10-01T14:37:25.798Z,993.69
2016-10-01T14:38:35.718Z,993.69
2016-10-01T14:39:45.711Z,993.68
2016-10-01T14:40:56.021Z,993.72
2016-10-01T14:42:05.717Z,993.72
2016-10-01T14:43:16.016Z,993.66
2016-10-01T14:44:26.019Z,993.71
2016-10-01T14:45:36.321Z,993.66
2016-10-01T14:46:46.331Z,993.68
2016-10-01T14:47:56.678Z,993.6
2016-10-01T14:49:06.997Z,993.64
2016-10-01T14:50:17.328Z,993.64
2016-10-01T14:51:27.017Z,993.63
2016-10-01T14:52:37.348Z,993.64
2016-10-01T14:53:47.353Z,993.59
2016-10-01T14:54:57.660Z,993.62
2016-10-01T14:56:07.978Z,993.57
2016-10-01T14:57:18.001Z,993.54
2016-10-01T14:58:28.316Z,993.6
2016-10-01T14:59:38.645Z,993.57
2016-10-01T15:00:48.966Z,993.56
2016-10-01T15:01:59.293Z,993.56
2016-10-01T15:03:09.587Z,993.61
2016-10-01T15:04:19.893Z,993.51
2016-10-01T15:05:29.887Z,993.53
2016-10-01T15:06:39.908Z,993.55
2016-10-01T15:07:50.245Z,993.55